createdAt,value
2023-02-15T00:05:57.501Z,20.9
2023-02-15T00:15:59.412Z,20.4
2023-02-15T00:26:02.220Z,20.9
2023-02-15T00:36:04.224Z,20.5
2023-02-15T00:46:05.973Z,21.1
2023-02-15T00:56:08.723Z,21
2023-02-15T01:06:11.033Z,20.6
2023-02-15T01:16:12.799Z,20.8
2023-02-15T01:26:15.434Z,20.8
2023-02-15T01:36:17.856Z,20.8
2023-02-15T01:46:20.118Z,20.8
2023-02-15T01:56:22.386Z,21.3
2023-02-15T02:06:26.004Z,20.8
2023-02-15T02:16:26.866Z,20.9
2023-02-15T02:26:28.979Z,20.8
2023-02-15T02:36:31.296Z,20.9
2023-02-15T02:46:33.453Z,20.9
2023-02-15T02:56:35.813Z,20.5
2023-02-15T03:05:09.412Z,20.4
2023-02-15T03:15:10.955Z,21.4
2023-02-15T03:25:12.822Z,20.6
2023-02-15T03:35:14.421Z,20.4
2023-02-15T03:45:16.147Z,20.4
2023-02-15T03:55:17.782Z,20.9
2023-02-15T04:05:20.271Z,20.4
2023-02-15T04:15:23.169Z,20.6
2023-02-15T04:25:26.114Z,21
2023-02-15T04:35:28.955Z,20.6
2023-02-15T04:45:32.335Z,20.6
2023-02-15T04:55:35.136Z,20.3
2023-02-15T05:05:37.621Z,20.8
2023-02-15T05:15:39.949Z,21
2023-02-15T05:25:42.404Z,20.7
2023-02-15T05:35:44.753Z,20.8
2023-02-15T05:45:47.196Z,20.7
2023-02-15T05:55:49.783Z,20.9
2023-02-15T06:05:52.193Z,20.4
2023-02-15T06:15:54.738Z,20.6
2023-02-15T06:25:57.266Z,20.6
2023-02-15T06:36:00.571Z,20.2
2023-02-15T06:46:03.168Z,20.6
2023-02-15T06:56:05.597Z,20.6
2023-02-15T07:06:08.502Z,22.3
2023-02-15T07:16:14.201Z,30.6
2023-02-15T07:26:22.943Z,30.6
2023-02-15T07:36:32.675Z,24.3
2023-02-15T07:46:42.666Z,30.4
2023-02-15T07:56:50.506Z,25.4
2023-02-15T08:06:58.533Z,27.3
2023-02-15T08:17:06.282Z,27.4
2023-02-15T08:27:13.811Z,26.9
2023-02-15T08:37:20.623Z,24.8
2023-02-15T08:47:25.176Z,23.1
2023-02-15T08:57:29.182Z,22.9
2023-02-15T09:05:11.479Z,24.8
2023-02-15T09:15:17.284Z,22.8
2023-02-15T09:24:26.542Z,26.7
2023-02-15T09:34:34.822Z,25.4
2023-02-15T09:44:38.577Z,27.3
2023-02-15T09:54:46.308Z,29.4
2023-02-15T10:04:53.705Z,29.8
2023-02-15T10:15:01.461Z,30.7
2023-02-15T10:25:10.379Z,30.6
2023-02-15T10:35:21.174Z,27.2
2023-02-15T10:45:30.341Z,30.1
2023-02-15T10:55:42.430Z,30.3
2023-02-15T11:05:49.062Z,28.6
2023-02-15T11:15:58.443Z,28.4
2023-02-15T11:26:06.737Z,28.2
2023-02-15T11:36:13.560Z,28.4
2023-02-15T11:46:20.506Z,28.3
2023-02-15T11:56:28.325Z,28.6
2023-02-15T12:06:29.148Z,24
2023-02-15T12:16:34.874Z,29.1
2023-02-15T12:26:36.790Z,27.1
2023-02-15T12:36:38.364Z,19.1
2023-02-15T12:46:38.694Z,24.3
2023-02-15T12:56:41.319Z,22.2
2023-02-15T13:06:43.491Z,22.3
2023-02-15T13:16:46.032Z,21.3
2023-02-15T13:26:47.821Z,21.8
2023-02-15T13:36:50.118Z,21.4
2023-02-15T13:46:52.431Z,21.7
2023-02-15T13:56:54.778Z,21.6
2023-02-15T14:06:57.158Z,21.3
2023-02-15T14:17:06.506Z,21.1
2023-02-15T14:27:01.124Z,21.3
2023-02-15T14:37:03.965Z,16.1
2023-02-15T14:47:06.239Z,21.8
2023-02-15T14:57:07.313Z,22.2
2023-02-15T15:05:09.519Z,20.9
2023-02-15T15:15:10.680Z,21.2
2023-02-15T15:25:10.587Z,22.4
2023-02-15T15:35:10.566Z,22.4
2023-02-15T15:45:12.758Z,21.3
2023-02-15T15:55:13.790Z,20.9
2023-02-15T16:05:15.475Z,22
2023-02-15T16:15:18.042Z,16.4
2023-02-15T16:25:20.428Z,20.9
2023-02-15T16:35:22.747Z,16.2
2023-02-15T16:45:24.575Z,20.9
2023-02-15T16:55:25.884Z,16.5
2023-02-15T17:05:25.702Z,16.3
2023-02-15T17:15:25.883Z,16.4
2023-02-15T17:25:26.109Z,21.9
2023-02-15T17:35:26.440Z,16.4
2023-02-15T17:45:26.170Z,21.9
2023-02-15T17:55:26.154Z,16.4
2023-02-15T18:05:25.148Z,16.4
2023-02-15T18:15:24.801Z,16.5
2023-02-15T18:25:24.435Z,16.6
2023-02-15T18:35:24.661Z,16.4
2023-02-15T18:45:24.286Z,16.4
2023-02-15T18:55:24.520Z,16.5
2023-02-15T19:05:24.314Z,16.3
2023-02-15T19:15:23.691Z,16.5
2023-02-15T19:25:24.113Z,16.4
2023-02-15T19:35:24.319Z,16.3
2023-02-15T19:45:23.862Z,16.4
2023-02-15T19:55:23.742Z,16.6
2023-02-15T20:05:23.404Z,16.3
2023-02-15T20:15:23.882Z,16.9
2023-02-15T20:25:24.454Z,16.4
2023-02-15T20:35:24.118Z,16.6
2023-02-15T20:45:24.258Z,21.4
2023-02-15T20:55:24.959Z,16.3
2023-02-15T21:04:08.883Z,16.6
2023-02-15T21:14:08.044Z,16.6
2023-02-15T21:24:09.029Z,16.3
2023-02-15T21:34:10.106Z,16.4
2023-02-15T21:44:11.324Z,16.5
2023-02-15T21:54:12.039Z,16.5
2023-02-15T22:04:12.780Z,16.1
2023-02-15T22:14:12.604Z,16.8
2023-02-15T22:24:12.046Z,16.4
2023-02-15T22:34:11.887Z,16.8
2023-02-15T22:44:11.463Z,16.4
2023-02-15T22:54:11.120Z,16.2
2023-02-15T23:04:10.373Z,16.4
2023-02-15T23:14:10.721Z,16.4
2023-02-15T23:24:10.340Z,16.3
2023-02-15T23:34:09.678Z,16.2
2023-02-15T23:44:09.658Z,16.6
2023-02-15T23:54:09.334Z,16.4
